Time;durP1;ratioP1;P1;durP2;ratioP2;P2;SDS_P1;SDS_P2;PMS_P1;PMS_P2;Temp;Humidity;BMP_temperature;BMP_pressure;BME280_temperature;BME280_humidity;BME280_pressure;Samples;Min_cycle;Max_cycle;Signal;HPM_P1;HPM_P2
2022/08/14 00:00:23;;;;;;;3.08;2.17;;;22.50;63.90;;;;;;4856547;29;20046;-68
2022/08/14 00:02:49;;;;;;;4.10;2.20;;;22.50;63.90;;;;;;4859950;29;20029;-69
2022/08/14 00:05:18;;;;;;;5.38;2.72;;;22.50;63.70;;;;;;4855009;29;20116;-68
2022/08/14 00:07:45;;;;;;;2.85;2.13;;;22.50;64.50;;;;;;4857532;29;20057;-68
2022/08/14 00:10:14;;;;;;;4.05;2.60;;;22.50;64.10;;;;;;4856993;29;20044;-67
2022/08/14 00:12:45;;;;;;;6.55;2.75;;;22.40;64.40;;;;;;4857079;29;20029;-69
2022/08/14 00:15:16;;;;;;;3.88;2.25;;;22.30;64.90;;;;;;4854786;29;20033;-68
2022/08/14 00:17:43;;;;;;;6.05;2.72;;;22.30;64.70;;;;;;4856418;29;20435;-67
2022/08/14 00:20:09;;;;;;;6.93;2.58;;;22.30;64.70;;;;;;4857229;29;20045;-68
2022/08/14 00:22:34;;;;;;;4.57;2.58;;;22.40;64.90;;;;;;4857119;29;20477;-68
2022/08/14 00:25:00;;;;;;;5.53;2.35;;;22.30;65.00;;;;;;4852423;29;20071;-68
2022/08/14 00:27:26;;;;;;;4.63;2.17;;;22.30;64.90;;;;;;4858591;29;20128;-69
2022/08/14 00:29:51;;;;;;;5.30;2.42;;;22.30;65.30;;;;;;4856931;29;20470;-69
2022/08/14 00:32:17;;;;;;;6.32;2.50;;;22.30;65.40;;;;;;4854037;29;20064;-68
2022/08/14 00:34:42;;;;;;;4.35;2.67;;;22.30;65.30;;;;;;4854078;29;20367;-69
2022/08/14 00:37:08;;;;;;;4.70;2.55;;;22.30;65.10;;;;;;4856701;29;20041;-68
2022/08/14 00:39:33;;;;;;;6.15;2.80;;;22.30;65.40;;;;;;4859089;29;20033;-68
2022/08/14 00:41:59;;;;;;;5.90;2.70;;;22.30;65.30;;;;;;4857127;29;20065;-69
2022/08/14 00:44:24;;;;;;;6.03;2.50;;;22.30;64.90;;;;;;4857120;29;20503;-69
2022/08/14 00:46:50;;;;;;;5.88;2.60;;;22.30;64.90;;;;;;4852145;29;20376;-69
2022/08/14 00:49:16;;;;;;;3.25;2.50;;;22.40;65.10;;;;;;4857390;29;20188;-69
2022/08/14 00:51:44;;;;;;;3.60;2.40;;;22.30;65.10;;;;;;4848551;29;20033;-68
2022/08/14 00:54:10;;;;;;;4.03;2.70;;;22.30;65.10;;;;;;4858913;29;20449;-69
2022/08/14 00:56:36;;;;;;;4.10;2.58;;;22.30;65.00;;;;;;4853980;29;20041;-68
2022/08/14 00:59:02;;;;;;;4.80;2.53;;;22.30;65.00;;;;;;4852030;29;20394;-68
2022/08/14 01:01:28;;;;;;;6.50;2.55;;;22.30;64.80;;;;;;4856028;29;20057;-68
2022/08/14 01:03:57;;;;;;;6.00;2.92;;;22.20;65.10;;;;;;4856192;29;20037;-68
2022/08/14 01:06:25;;;;;;;3.88;2.40;;;22.20;65.30;;;;;;4851571;29;20128;-69
2022/08/14 01:08:51;;;;;;;7.75;2.13;;;22.20;65.50;;;;;;4857403;29;20038;-69
2022/08/14 01:11:16;;;;;;;6.40;2.70;;;22.10;65.70;;;;;;4855916;29;20049;-69
2022/08/14 01:13:44;;;;;;;4.95;2.28;;;22.10;66.10;;;;;;4854747;29;20038;-69
2022/08/14 01:16:14;;;;;;;3.80;2.33;;;22.10;65.90;;;;;;4855665;29;20174;-70
2022/08/14 01:21:30;;;;;;;5.20;2.55;;;22.00;65.90;;;;;;4852792;29;20060;-69
2022/08/14 01:23:56;;;;;;;8.48;2.70;;;22.00;66.20;;;;;;4857993;29;20037;-70
2022/08/14 01:26:24;;;;;;;3.88;2.33;;;22.00;66.30;;;;;;4854680;29;20406;-69
2022/08/14 01:28:54;;;;;;;3.83;2.60;;;22.00;65.90;;;;;;4855716;29;20176;-70
2022/08/14 01:31:21;;;;;;;4.97;2.42;;;22.00;66.20;;;;;;4857411;29;20037;-69
2022/08/14 01:33:49;;;;;;;3.95;2.60;;;22.00;66.60;;;;;;4853942;29;20453;-68
2022/08/14 01:36:16;;;;;;;6.28;2.63;;;21.90;66.40;;;;;;4852609;29;20033;-68
2022/08/14 01:38:47;;;;;;;4.22;2.47;;;21.90;66.30;;;;;;4858306;29;20453;-68
2022/08/14 01:41:16;;;;;;;5.20;2.80;;;21.90;66.40;;;;;;4857069;29;20120;-68
2022/08/14 01:43:50;;;;;;;4.65;2.70;;;21.80;66.50;;;;;;4854089;29;20030;-68
2022/08/14 01:46:21;;;;;;;4.72;2.50;;;21.80;66.60;;;;;;4856606;29;20210;-68
2022/08/14 01:48:47;;;;;;;;;;;21.80;66.80;;;;;;4856550;29;20065;-68
2022/08/14 01:51:15;;;;;;;5.47;2.53;;;21.80;67.20;;;;;;4852797;29;19916;-68
2022/08/14 01:53:43;;;;;;;4.93;2.30;;;21.70;67.00;;;;;;4856620;29;20470;-68
2022/08/14 01:56:09;;;;;;;5.43;2.63;;;21.70;67.00;;;;;;4854934;29;20449;-68
2022/08/14 01:58:35;;;;;;;5.32;2.67;;;21.60;67.10;;;;;;4852899;29;20541;-68
2022/08/14 02:01:01;;;;;;;4.53;2.53;;;21.70;67.00;;;;;;4853717;29;20046;-68
2022/08/14 02:03:33;;;;;;;4.28;2.33;;;21.60;67.20;;;;;;4857601;29;20041;-68
2022/08/14 02:06:01;;;;;;;5.03;2.53;;;21.60;67.20;;;;;;4852716;29;20049;-70
2022/08/14 02:08:29;;;;;;;4.40;2.60;;;21.60;67.50;;;;;;4854350;29;20422;-69
2022/08/14 02:11:16;;;;;;;3.58;2.58;;;21.50;67.60;;;;;;4852532;29;20040;-71
2022/08/14 02:13:42;;;;;;;4.30;2.28;;;21.50;67.90;;;;;;4856189;29;20029;-69
2022/08/14 02:16:15;;;;;;;3.35;2.25;;;21.50;68.00;;;;;;4854478;29;20038;-68
2022/08/14 02:18:41;;;;;;;3.88;2.55;;;21.50;67.90;;;;;;4857370;29;20029;-68
2022/08/14 02:21:07;;;;;;;5.18;2.30;;;21.50;68.20;;;;;;4854599;29;20042;-68
2022/08/14 02:23:32;;;;;;;3.40;2.17;;;21.50;68.20;;;;;;4852667;29;20036;-68
2022/08/14 02:26:00;;;;;;;3.22;2.13;;;21.50;68.50;;;;;;4855084;29;20044;-69
2022/08/14 02:28:30;;;;;;;6.43;2.70;;;21.50;68.30;;;;;;4856547;29;20033;-68
2022/08/14 02:30:58;;;;;;;5.47;2.70;;;21.50;68.30;;;;;;4855075;29;20041;-69
2022/08/14 02:33:23;;;;;;;6.05;2.60;;;21.50;68.40;;;;;;4857164;29;20033;-69
2022/08/14 02:35:50;;;;;;;4.72;2.53;;;21.40;68.40;;;;;;4854889;29;20052;-69
2022/08/14 02:38:16;;;;;;;4.57;2.80;;;21.40;68.50;;;;;;4854770;29;20041;-68
2022/08/14 02:40:42;;;;;;;3.40;2.33;;;21.30;69.20;;;;;;4853539;29;20053;-68
2022/08/14 02:43:07;;;;;;;4.80;2.67;;;21.20;68.90;;;;;;4855578;29;20041;-68
2022/08/14 02:45:33;;;;;;;3.17;2.47;;;21.20;70.00;;;;;;4854725;29;20029;-68
2022/08/14 02:48:01;;;;;;;4.50;2.50;;;21.10;69.70;;;;;;4858282;29;20185;-69
2022/08/14 02:50:27;;;;;;;4.38;2.40;;;21.00;69.80;;;;;;4851987;29;20457;-68
2022/08/14 02:52:53;;;;;;;4.63;2.50;;;21.00;70.00;;;;;;4855611;29;20129;-69
2022/08/14 02:55:19;;;;;;;4.90;2.75;;;21.00;69.90;;;;;;4854677;29;20478;-69
2022/08/14 02:57:46;;;;;;;4.88;2.35;;;21.00;70.20;;;;;;4855774;29;20041;-69
2022/08/14 03:00:12;;;;;;;6.35;2.63;;;21.00;69.90;;;;;;4841366;29;20424;-68
2022/08/14 03:02:38;;;;;;;4.65;2.38;;;20.90;70.50;;;;;;4857332;29;20077;-68
2022/08/14 03:05:04;;;;;;;8.43;2.47;;;20.90;70.60;;;;;;4856928;29;20041;-69
2022/08/14 03:07:29;;;;;;;4.45;2.85;;;20.70;70.80;;;;;;4859992;29;20443;-68
2022/08/14 03:09:55;;;;;;;4.60;2.65;;;20.70;71.00;;;;;;4859393;29;20102;-68
2022/08/14 03:12:21;;;;;;;4.55;2.42;;;20.60;71.00;;;;;;4860218;29;20358;-68
2022/08/14 03:14:51;;;;;;;4.03;2.72;;;20.50;71.30;;;;;;4857438;29;20070;-69
2022/08/14 03:17:17;;;;;;;4.05;2.60;;;20.50;71.50;;;;;;4855144;29;20105;-68
2022/08/14 03:19:42;;;;;;;6.35;3.13;;;20.40;71.50;;;;;;4858260;29;20104;-68
2022/08/14 03:22:08;;;;;;;4.60;2.30;;;20.50;71.70;;;;;;4854932;29;20114;-68
2022/08/14 03:24:35;;;;;;;3.97;2.30;;;20.40;72.00;;;;;;4858403;29;20113;-68
2022/08/14 03:27:02;;;;;;;8.27;2.78;;;20.30;72.20;;;;;;4858049;29;20050;-68
2022/08/14 03:29:27;;;;;;;5.63;2.47;;;20.20;72.70;;;;;;4855674;29;20060;-69
2022/08/14 03:31:54;;;;;;;4.28;2.35;;;20.20;72.60;;;;;;4850541;29;20474;-68
2022/08/14 03:34:23;;;;;;;7.18;2.65;;;20.20;72.60;;;;;;4852924;29;20480;-68
2022/08/14 03:36:57;;;;;;;5.80;2.50;;;20.20;72.90;;;;;;4857895;29;20034;-69
2022/08/14 03:39:22;;;;;;;4.70;2.72;;;20.10;73.00;;;;;;4858172;29;20021;-69
2022/08/14 03:41:54;;;;;;;6.05;2.78;;;20.10;73.20;;;;;;4853097;29;20454;-68
2022/08/14 03:44:20;;;;;;;3.20;2.42;;;20.10;73.20;;;;;;4859801;29;20077;-69
2022/08/14 03:46:45;;;;;;;5.70;2.70;;;20.00;73.50;;;;;;4859400;29;20041;-71
2022/08/14 03:49:11;;;;;;;5.22;2.40;;;20.00;73.60;;;;;;4858671;29;20044;-69
2022/08/14 03:51:37;;;;;;;4.18;2.60;;;20.00;73.40;;;;;;4855061;29;20351;-68
2022/08/14 03:54:07;;;;;;;5.22;2.40;;;20.00;73.80;;;;;;4859555;29;20116;-68
2022/08/14 03:56:33;;;;;;;4.90;2.97;;;20.00;73.60;;;;;;4855685;29;20042;-68
2022/08/14 03:59:01;;;;;;;3.85;2.28;;;20.00;73.80;;;;;;4850068;29;20054;-70
2022/08/14 04:01:27;;;;;;;3.08;2.20;;;20.00;73.80;;;;;;4854227;29;20425;-69
2022/08/14 04:03:56;;;;;;;7.07;2.35;;;20.00;74.00;;;;;;4855713;29;20034;-68
2022/08/14 04:06:22;;;;;;;5.60;2.45;;;20.00;73.90;;;;;;4853997;29;20384;-69
2022/08/14 04:08:49;;;;;;;5.32;2.95;;;20.00;74.00;;;;;;4859266;29;20037;-68
2022/08/14 04:11:15;;;;;;;3.65;2.40;;;20.00;74.20;;;;;;4852830;29;20073;-67
2022/08/14 04:13:42;;;;;;;3.75;2.60;;;20.00;74.20;;;;;;4856328;29;20486;-68
2022/08/14 04:16:10;;;;;;;4.80;2.58;;;19.90;74.30;;;;;;4857941;29;20044;-68
2022/08/14 04:18:40;;;;;;;4.72;2.78;;;20.00;74.60;;;;;;4855221;29;20123;-65
2022/08/14 04:21:06;;;;;;;3.30;2.15;;;20.00;74.60;;;;;;4849026;29;20061;-66
2022/08/14 04:23:32;;;;;;;4.68;2.40;;;20.00;74.50;;;;;;4857337;29;20471;-66
2022/08/14 04:25:59;;;;;;;5.15;2.55;;;20.00;74.50;;;;;;4853544;29;20077;-68
2022/08/14 04:28:25;;;;;;;3.17;1.92;;;20.00;74.40;;;;;;4857409;29;20037;-66
2022/08/14 04:30:50;;;;;;;3.28;2.40;;;20.00;74.30;;;;;;4855667;29;20500;-66
2022/08/14 04:33:16;;;;;;;4.22;2.50;;;20.00;74.40;;;;;;4859043;29;20089;-67
2022/08/14 04:35:41;;;;;;;5.65;2.47;;;20.00;74.40;;;;;;4854746;29;20038;-66
2022/08/14 04:43:38;;;;;;;5.03;2.30;;;20.10;74.40;;;;;;4856770;29;20040;-67
2022/08/14 04:46:13;;;;;;;3.78;2.40;;;20.20;74.40;;;;;;4856670;29;20045;-66
2022/08/14 04:48:39;;;;;;;3.92;2.42;;;20.30;74.40;;;;;;4858708;29;20029;-66
2022/08/14 04:51:08;;;;;;;4.43;2.63;;;20.30;74.60;;;;;;4851542;29;20117;-66
2022/08/14 04:53:36;;;;;;;4.57;2.58;;;20.30;74.50;;;;;;4858113;29;20040;-66
2022/08/14 04:56:04;;;;;;;5.53;2.85;;;20.30;74.60;;;;;;4851324;29;20185;-66
2022/08/14 04:58:31;;;;;;;3.08;2.05;;;20.40;74.60;;;;;;4853874;29;20102;-67
2022/08/14 05:00:57;;;;;;;6.10;2.65;;;20.30;74.10;;;;;;4851103;29;20052;-67
2022/08/14 05:03:27;;;;;;;2.97;2.10;;;20.40;74.50;;;;;;4856763;29;20378;-66
2022/08/14 05:05:55;;;;;;;5.10;2.30;;;20.40;74.00;;;;;;4854922;29;20051;-68
2022/08/14 05:08:22;;;;;;;4.82;2.20;;;20.40;74.60;;;;;;4855602;29;20057;-67
2022/08/14 05:10:51;;;;;;;3.25;2.50;;;20.40;75.10;;;;;;4852874;29;20041;-67
2022/08/14 05:13:18;;;;;;;5.07;2.60;;;20.40;75.10;;;;;;4857034;29;20915;-66
2022/08/14 05:15:45;;;;;;;3.67;2.35;;;20.30;75.30;;;;;;4855444;29;20545;-68
2022/08/14 05:18:13;;;;;;;4.13;2.03;;;20.30;75.40;;;;;;4853411;29;20041;-66
2022/08/14 05:20:42;;;;;;;4.13;2.42;;;20.40;75.30;;;;;;4854469;29;20795;-66
2022/08/14 05:23:08;;;;;;;6.28;2.50;;;20.40;75.30;;;;;;4851257;29;20396;-66
2022/08/14 05:25:34;;;;;;;4.65;2.42;;;20.50;75.30;;;;;;4857374;29;20037;-66
2022/08/14 05:28:11;;;;;;;5.13;2.78;;;20.50;74.90;;;;;;4855638;29;20098;-69
2022/08/14 05:30:38;;;;;;;6.22;2.40;;;20.50;75.40;;;;;;4854332;29;20041;-67
2022/08/14 05:33:05;;;;;;;3.95;2.28;;;20.50;74.80;;;;;;4866392;29;20034;-67
2022/08/14 05:35:31;;;;;;;5.75;2.53;;;20.60;74.80;;;;;;4855005;29;20117;-68
2022/08/14 05:37:58;;;;;;;3.35;2.40;;;20.70;73.80;;;;;;4857390;29;20098;-68
2022/08/14 05:40:24;;;;;;;2.80;2.10;;;20.70;73.80;;;;;;4850513;29;20037;-67
2022/08/14 05:42:49;;;;;;;4.82;2.47;;;20.80;74.00;;;;;;4858377;29;20466;-69
2022/08/14 05:45:16;;;;;;;4.63;2.60;;;20.80;73.50;;;;;;4857169;29;20031;-69
2022/08/14 05:47:41;;;;;;;9.73;2.85;;;20.90;73.60;;;;;;4858476;29;20112;-67
2022/08/14 05:50:12;;;;;;;5.25;2.45;;;20.90;73.70;;;;;;4854771;29;20477;-67
2022/08/14 05:52:38;;;;;;;3.28;2.40;;;20.90;73.60;;;;;;4858815;29;20060;-67
2022/08/14 05:55:06;;;;;;;9.20;2.20;;;20.90;73.90;;;;;;4857489;29;20490;-68
2022/08/14 05:57:31;;;;;;;5.97;2.85;;;21.00;73.30;;;;;;4854155;29;20443;-68
2022/08/14 05:59:57;;;;;;;5.80;2.45;;;21.00;73.10;;;;;;4851451;29;20041;-68
2022/08/14 06:02:22;;;;;;;3.97;2.60;;;21.10;73.40;;;;;;4850987;29;20117;-67
2022/08/14 06:04:48;;;;;;;3.90;2.78;;;21.20;73.20;;;;;;4852694;29;20068;-67
2022/08/14 06:07:14;;;;;;;4.90;2.50;;;21.20;73.10;;;;;;4853672;29;20053;-66
2022/08/14 06:09:40;;;;;;;6.03;2.83;;;21.30;73.10;;;;;;4854949;29;20461;-68
2022/08/14 06:12:07;;;;;;;6.35;2.92;;;21.40;72.90;;;;;;4851391;29;20120;-70
2022/08/14 06:14:32;;;;;;;4.88;2.70;;;21.50;72.90;;;;;;4853526;29;20157;-68
2022/08/14 06:16:58;;;;;;;3.20;2.03;;;21.60;72.10;;;;;;4859106;29;20123;-70
2022/08/14 06:19:23;;;;;;;3.25;2.15;;;21.80;72.20;;;;;;4857808;29;20090;-68
2022/08/14 06:21:50;;;;;;;4.93;2.60;;;21.90;71.80;;;;;;4853147;29;20042;-68
2022/08/14 06:24:15;;;;;;;4.60;2.47;;;22.00;71.60;;;;;;4852056;29;20084;-68
2022/08/14 06:26:41;;;;;;;6.88;2.90;;;22.30;71.20;;;;;;4857719;29;20033;-69
2022/08/14 06:29:07;;;;;;;9.18;2.78;;;22.50;69.90;;;;;;4854507;29;20037;-69
2022/08/14 06:31:32;;;;;;;6.20;2.85;;;22.60;70.20;;;;;;4857448;29;20025;-70
2022/08/14 06:33:58;;;;;;;5.93;2.63;;;22.70;69.30;;;;;;4855445;29;20040;-71
2022/08/14 06:36:23;;;;;;;3.80;2.42;;;22.90;70.30;;;;;;4858763;29;20666;-70
2022/08/14 06:38:51;;;;;;;3.78;2.50;;;23.10;69.40;;;;;;4861351;29;20045;-70
2022/08/14 06:41:16;;;;;;;5.57;2.40;;;23.30;68.60;;;;;;4855789;29;20414;-69
2022/08/14 06:43:42;;;;;;;6.18;2.67;;;23.30;68.70;;;;;;4871438;29;20104;-70
2022/08/14 06:46:08;;;;;;;4.25;2.42;;;23.40;68.40;;;;;;4867940;29;20049;-69
2022/08/14 06:48:34;;;;;;;6.28;2.60;;;23.30;67.20;;;;;;4859067;29;20073;-69
2022/08/14 06:50:59;;;;;;;4.78;2.60;;;23.30;67.80;;;;;;4858472;29;20056;-72
2022/08/14 06:53:25;;;;;;;4.88;2.33;;;23.20;68.50;;;;;;4856062;29;20477;-70
2022/08/14 06:55:50;;;;;;;6.10;2.45;;;23.30;69.40;;;;;;4870491;29;20109;-71
2022/08/14 06:58:18;;;;;;;3.53;2.20;;;23.10;68.50;;;;;;4859455;29;20583;-71
2022/08/14 07:05:45;;;;;;;3.72;2.08;;;23.30;68.80;;;;;;4858542;29;20048;-71
2022/08/14 07:06:17;;;;;;;4.05;2.60;;;23.50;68.90;;;;;;4854711;29;20061;-70
2022/08/14 07:08:43;;;;;;;5.13;2.47;;;23.60;68.20;;;;;;4856846;29;20900;-69
2022/08/14 07:11:10;;;;;;;5.72;2.83;;;23.70;67.50;;;;;;4860482;29;20038;-69
2022/08/14 07:13:35;;;;;;;4.90;2.10;;;23.80;67.60;;;;;;4858147;29;20498;-69
2022/08/14 07:16:01;;;;;;;5.10;2.20;;;23.80;67.50;;;;;;4857516;29;20116;-70
2022/08/14 07:18:29;;;;;;;4.43;2.70;;;24.00;67.70;;;;;;4851755;29;20033;-68
2022/08/14 07:20:59;;;;;;;3.67;2.47;;;24.00;67.30;;;;;;4854793;29;20026;-71
2022/08/14 07:23:25;;;;;;;5.47;2.53;;;24.10;67.20;;;;;;4857347;29;20044;-69
2022/08/14 07:25:55;;;;;;;4.18;2.40;;;24.30;66.90;;;;;;4857172;29;20285;-70
2022/08/14 07:28:27;;;;;;;3.40;2.40;;;24.50;67.60;;;;;;4857711;29;21632;-69
2022/08/14 07:30:56;;;;;;;4.28;2.50;;;24.50;67.90;;;;;;4857877;29;20290;-70
2022/08/14 07:33:24;;;;;;;5.25;2.45;;;24.50;66.90;;;;;;4855254;29;20034;-69
2022/08/14 07:35:50;;;;;;;4.43;2.60;;;24.70;65.70;;;;;;4858684;29;20029;-69
2022/08/14 07:38:19;;;;;;;5.47;2.53;;;24.80;65.00;;;;;;4854948;29;20037;-72
2022/08/14 07:40:45;;;;;;;3.92;2.42;;;24.90;65.40;;;;;;4860099;29;20567;-69
2022/08/14 07:43:12;;;;;;;4.35;2.55;;;25.10;65.80;;;;;;4859834;29;20108;-69
2022/08/14 07:45:38;;;;;;;3.92;2.75;;;25.20;66.60;;;;;;4855443;29;20037;-71
2022/08/14 07:48:05;;;;;;;6.30;2.65;;;25.10;65.50;;;;;;4854013;29;20557;-71
2022/08/14 07:50:32;;;;;;;4.72;2.47;;;25.50;64.40;;;;;;4848065;29;20370;-70
2022/08/14 07:52:58;;;;;;;3.92;2.40;;;25.60;64.00;;;;;;4858774;29;20093;-70
2022/08/14 07:55:24;;;;;;;6.68;2.65;;;25.60;64.30;;;;;;4856685;29;20056;-70
2022/08/14 07:57:50;;;;;;;9.98;2.70;;;25.80;62.50;;;;;;4858560;29;20029;-71
2022/08/14 08:00:19;;;;;;;3.70;2.67;;;26.00;63.20;;;;;;4850815;29;20378;-70
2022/08/14 08:02:46;;;;;;;7.47;2.85;;;25.90;62.70;;;;;;4853038;29;20042;-74
2022/08/14 08:05:13;;;;;;;3.45;2.30;;;26.10;62.60;;;;;;4840780;29;20484;-71
2022/08/14 08:07:39;;;;;;;5.60;2.78;;;26.40;62.30;;;;;;4859168;29;20045;-70
2022/08/14 08:12:55;;;;;;;4.18;2.72;;;26.70;60.10;;;;;;4855552;29;20068;-70
2022/08/14 08:15:22;;;;;;;8.35;3.28;;;26.80;59.70;;;;;;4857559;29;20026;-70
2022/08/14 08:17:47;;;;;;;6.95;2.78;;;27.10;59.70;;;;;;4856526;29;20030;-70
2022/08/14 08:20:18;;;;;;;5.28;2.75;;;27.30;59.40;;;;;;4855187;29;20488;-70
2022/08/14 08:22:44;;;;;;;5.60;2.65;;;27.20;58.10;;;;;;4856156;29;20494;-70
2022/08/14 08:25:11;;;;;;;5.38;2.55;;;27.40;59.50;;;;;;4854447;29;20113;-71
2022/08/14 08:27:36;;;;;;;4.57;2.53;;;27.60;56.80;;;;;;4855252;29;20098;-71
2022/08/14 08:30:08;;;;;;;5.85;2.65;;;27.70;58.40;;;;;;4855994;29;20116;-71
2022/08/14 08:32:42;;;;;;;3.45;2.45;;;27.90;58.80;;;;;;4857383;29;20377;-71
2022/08/14 08:35:29;;;;;;;6.10;2.90;;;27.80;56.40;;;;;;4856235;29;20037;-70
2022/08/14 08:38:03;;;;;;;5.13;2.85;;;28.00;56.50;;;;;;4860057;29;20044;-71
2022/08/14 08:40:34;;;;;;;5.63;2.80;;;28.30;56.40;;;;;;4850925;29;20037;-70
2022/08/14 08:43:01;;;;;;;4.40;2.80;;;28.40;56.90;;;;;;4857605;29;20042;-72
2022/08/14 08:45:27;;;;;;;4.03;2.90;;;28.50;57.40;;;;;;4857755;29;20063;-70
2022/08/14 08:47:52;;;;;;;5.05;3.15;;;28.50;56.50;;;;;;4858529;29;20026;-72
2022/08/14 08:50:22;;;;;;;7.95;3.03;;;28.80;55.30;;;;;;4855941;29;20037;-71
2022/08/14 08:52:53;;;;;;;6.13;3.20;;;28.90;54.30;;;;;;4855044;29;20040;-71
2022/08/14 08:55:33;;;;;;;4.63;3.10;;;28.70;53.50;;;;;;4855865;29;20505;-72
2022/08/14 08:58:03;;;;;;;6.00;2.87;;;28.90;55.00;;;;;;4857896;29;20442;-72
2022/08/14 09:00:32;;;;;;;5.40;3.15;;;29.00;54.40;;;;;;4853109;29;20033;-70
2022/08/14 09:03:02;;;;;;;4.32;2.85;;;29.20;52.10;;;;;;4855151;29;20056;-73
2022/08/14 09:05:29;;;;;;;4.82;3.40;;;29.10;52.60;;;;;;4850968;29;20033;-72
2022/08/14 09:08:13;;;;;;;7.05;3.45;;;29.70;52.60;;;;;;4863903;29;20391;-73
2022/08/14 09:10:39;;;;;;;5.72;3.38;;;29.10;50.80;;;;;;4852113;29;20486;-71
2022/08/14 09:13:05;;;;;;;4.03;3.33;;;28.90;50.10;;;;;;4850007;29;20037;-71
2022/08/14 09:15:30;;;;;;;5.57;3.65;;;28.60;52.10;;;;;;4856584;29;20469;-74
2022/08/14 09:17:57;;;;;;;5.22;3.33;;;28.70;51.50;;;;;;4854040;29;20030;-71
2022/08/14 09:20:22;;;;;;;5.03;3.45;;;29.00;52.30;;;;;;4861016;29;20041;-72
2022/08/14 09:22:48;;;;;;;7.25;3.70;;;29.20;50.90;;;;;;4856755;29;20104;-72
2022/08/14 09:25:15;;;;;;;5.32;3.40;;;29.40;50.80;;;;;;4856152;29;20044;-72
2022/08/14 09:27:40;;;;;;;7.47;3.55;;;29.50;49.10;;;;;;4850360;29;20032;-72
2022/08/14 09:30:08;;;;;;;8.13;3.20;;;29.10;49.90;;;;;;4851291;29;20042;-72
2022/08/14 09:33:01;;;;;;;6.82;3.30;;;29.70;51.90;;;;;;4851156;29;20108;-71
2022/08/14 09:36:13;;;;;;;5.38;3.53;;;30.00;49.10;;;;;;4856372;29;20500;-72
2022/08/14 09:39:00;;;;;;;7.10;3.08;;;30.30;49.30;;;;;;4850963;29;20117;-70
2022/08/14 09:41:48;;;;;;;4.95;3.15;;;30.90;46.80;;;;;;4847298;29;20036;-71
2022/08/14 09:44:53;;;;;;;5.38;3.15;;;30.90;47.00;;;;;;4865638;29;20521;-72
2022/08/14 09:47:20;;;;;;;5.78;3.33;;;30.90;47.60;;;;;;4860361;29;20034;-71
2022/08/14 09:49:46;;;;;;;6.10;3.45;;;30.10;47.70;;;;;;4858465;29;20375;-71
2022/08/14 09:52:14;;;;;;;8.35;3.50;;;30.20;47.50;;;;;;4853909;29;20362;-72
2022/08/14 09:54:43;;;;;;;6.25;3.45;;;30.60;47.50;;;;;;4853215;29;20374;-72
2022/08/14 09:57:22;;;;;;;5.18;3.17;;;31.00;48.40;;;;;;4855151;29;20442;-72
2022/08/14 09:59:49;;;;;;;9.35;3.40;;;30.50;47.50;;;;;;4851877;29;20029;-71
2022/08/14 10:02:26;;;;;;;5.47;3.47;;;30.70;48.00;;;;;;4856929;29;20029;-68
2022/08/14 10:05:01;;;;;;;5.95;3.30;;;30.90;47.40;;;;;;4852835;29;20437;-71
2022/08/14 10:07:34;;;;;;;6.53;3.42;;;30.90;47.20;;;;;;4852209;29;20049;-73
2022/08/14 10:10:01;;;;;;;9.50;3.40;;;30.80;46.90;;;;;;4857930;29;20041;-71
2022/08/14 10:12:41;;;;;;;7.53;3.30;;;31.00;46.10;;;;;;4866804;29;20385;-68
2022/08/14 10:15:24;;;;;;;6.45;3.50;;;31.40;46.30;;;;;;4858042;29;20364;-70
2022/08/14 10:18:01;;;;;;;8.75;3.63;;;31.50;45.60;;;;;;4860034;29;20041;-71
2022/08/14 10:20:34;;;;;;;7.05;4.00;;;31.50;45.70;;;;;;4859238;29;20052;-70
2022/08/14 10:23:14;;;;;;;6.07;3.65;;;30.90;46.00;;;;;;4861091;29;20090;-71
2022/08/14 10:25:43;;;;;;;5.85;3.70;;;30.90;47.00;;;;;;4854838;29;20441;-71
2022/08/14 10:28:14;;;;;;;6.05;3.70;;;31.10;45.70;;;;;;4862879;29;20437;-71
2022/08/14 10:30:40;;;;;;;9.57;4.15;;;31.40;45.70;;;;;;4861293;29;20052;-70
2022/08/14 10:33:06;;;;;;;5.45;3.97;;;31.20;44.70;;;;;;4860825;29;20419;-73
2022/08/14 10:35:42;;;;;;;5.90;3.70;;;31.30;44.70;;;;;;4858887;29;20089;-72
2022/08/14 10:38:09;;;;;;;6.45;3.80;;;31.20;45.20;;;;;;4855713;29;20076;-72
2022/08/14 10:40:35;;;;;;;5.55;3.28;;;30.80;44.60;;;;;;4860264;29;20456;-70
2022/08/14 10:43:01;;;;;;;5.45;3.55;;;31.40;45.50;;;;;;4860128;29;20120;-71
2022/08/14 10:45:32;;;;;;;7.82;4.10;;;31.40;43.00;;;;;;4861230;29;20124;-70
2022/08/14 10:47:58;;;;;;;7.45;4.18;;;31.70;42.00;;;;;;4862857;29;20097;-71
2022/08/14 10:50:31;;;;;;;4.95;4.00;;;31.50;42.20;;;;;;4857220;29;20040;-70
2022/08/14 10:52:58;;;;;;;9.02;4.05;;;30.90;44.30;;;;;;4841712;29;21039;-71
2022/08/14 10:55:31;;;;;;;10.43;6.70;;;31.00;44.20;;;;;;4852455;29;20029;-70
2022/08/14 10:57:57;;;;;;;9.48;5.93;;;30.70;43.40;;;;;;4851281;29;20116;-71
2022/08/14 11:00:27;;;;;;;11.98;4.25;;;30.70;43.60;;;;;;4856903;29;20117;-69
2022/08/14 11:03:02;;;;;;;5.82;4.18;;;30.50;44.40;;;;;;4843488;29;20056;-72
2022/08/14 11:05:46;;;;;;;6.05;3.45;;;30.80;44.30;;;;;;4864235;29;20049;-69
2022/08/14 11:08:18;;;;;;;8.40;4.25;;;30.80;44.50;;;;;;4858243;29;20482;-69
2022/08/14 11:10:50;;;;;;;6.25;4.03;;;30.70;44.10;;;;;;4856128;29;20121;-69
2022/08/14 11:13:21;;;;;;;9.55;4.47;;;30.40;45.00;;;;;;4861676;29;20040;-69
2022/08/14 11:15:49;;;;;;;6.25;4.00;;;30.50;44.30;;;;;;4860147;29;20043;-69
2022/08/14 11:18:16;;;;;;;6.60;4.30;;;30.90;44.30;;;;;;4866698;29;20069;-70
2022/08/14 11:20:53;;;;;;;7.65;5.00;;;31.00;42.50;;;;;;4863617;29;20044;-69
2022/08/14 11:23:20;;;;;;;7.55;5.53;;;31.50;43.50;;;;;;4855359;29;20413;-70
2022/08/14 11:25:48;;;;;;;19.02;12.55;;;32.20;42.40;;;;;;4853609;29;20350;-68
2022/08/14 11:28:15;;;;;;;8.25;5.25;;;31.50;42.40;;;;;;4860520;29;20025;-69
2022/08/14 11:30:43;;;;;;;6.30;4.55;;;32.10;42.70;;;;;;4858837;29;20049;-69
2022/08/14 11:33:09;;;;;;;6.32;4.15;;;31.90;42.70;;;;;;4851965;29;21209;-69
2022/08/14 11:35:36;;;;;;;8.45;4.63;;;31.90;42.80;;;;;;4859472;29;20088;-70
2022/08/14 11:38:04;;;;;;;4.90;3.83;;;31.50;42.80;;;;;;4858077;29;20026;-70
2022/08/14 11:40:36;;;;;;;8.00;4.40;;;32.80;42.50;;;;;;4857897;29;20419;-71
2022/08/14 11:43:04;;;;;;;8.13;4.00;;;32.10;41.30;;;;;;4857157;29;20033;-71
2022/08/14 11:45:39;;;;;;;8.63;4.40;;;32.40;41.40;;;;;;4858852;29;20048;-70
2022/08/14 11:48:16;;;;;;;7.85;3.88;;;32.90;41.50;;;;;;4858731;29;20033;-70
2022/08/14 11:50:42;;;;;;;8.27;4.03;;;33.30;39.00;;;;;;4853694;29;20382;-70
2022/08/14 11:53:29;;;;;;;6.25;3.78;;;33.50;39.10;;;;;;4856671;29;20045;-70
2022/08/14 11:56:05;;;;;;;8.18;4.15;;;34.30;38.10;;;;;;4852352;29;20039;-71
2022/08/14 11:58:36;;;;;;;5.43;3.60;;;34.40;37.60;;;;;;4861044;29;20112;-71
2022/08/14 12:01:05;;;;;;;6.00;4.00;;;34.50;36.70;;;;;;4857953;29;20048;-71
2022/08/14 12:03:45;;;;;;;6.97;3.90;;;34.40;37.00;;;;;;4862242;29;20029;-71
2022/08/14 12:06:15;;;;;;;8.32;3.72;;;34.30;37.40;;;;;;4854069;29;20033;-70
2022/08/14 12:08:42;;;;;;;7.10;3.55;;;34.80;38.00;;;;;;4856074;29;20600;-70
2022/08/14 12:11:12;;;;;;;5.10;3.60;;;35.50;36.80;;;;;;4857347;29;20056;-71
2022/08/14 12:13:39;;;;;;;6.47;3.72;;;34.60;36.30;;;;;;4855523;29;20427;-71
2022/08/14 12:16:07;;;;;;;7.82;4.00;;;34.20;37.20;;;;;;4851970;29;20394;-71
2022/08/14 12:18:38;;;;;;;8.13;4.10;;;35.00;35.70;;;;;;4860850;29;20034;-70
2022/08/14 12:21:14;;;;;;;7.65;3.88;;;33.90;37.60;;;;;;4852000;29;20060;-68
2022/08/14 12:23:40;;;;;;;5.38;3.88;;;33.90;38.10;;;;;;4857512;29;20041;-70
2022/08/14 12:26:09;;;;;;;8.00;4.75;;;33.70;38.50;;;;;;4856288;29;20081;-71
2022/08/14 12:28:35;;;;;;;6.00;4.60;;;33.40;38.30;;;;;;4854746;29;20037;-70
2022/08/14 12:31:17;;;;;;;5.45;3.47;;;34.40;38.00;;;;;;4853057;29;20097;-71
2022/08/14 12:33:54;;;;;;;7.47;4.10;;;34.40;37.00;;;;;;4856939;29;20061;-69
2022/08/14 12:36:20;;;;;;;6.35;3.88;;;34.10;37.60;;;;;;4855952;29;20033;-70
2022/08/14 12:38:47;;;;;;;5.50;3.60;;;34.40;38.10;;;;;;4856634;29;20068;-71
2022/08/14 12:41:15;;;;;;;6.22;3.95;;;33.80;37.80;;;;;;4857420;29;20025;-69
2022/08/14 12:43:53;;;;;;;9.55;3.70;;;33.60;38.70;;;;;;4858500;29;20071;-70
2022/08/14 12:46:24;;;;;;;5.40;3.78;;;33.60;38.60;;;;;;4856718;29;20427;-70
2022/08/14 12:48:53;;;;;;;5.43;3.70;;;33.70;40.70;;;;;;4858590;29;20061;-72
2022/08/14 12:51:21;;;;;;;6.35;3.83;;;33.20;39.10;;;;;;4850731;29;20051;-71
2022/08/14 12:53:47;;;;;;;6.53;4.13;;;33.90;39.10;;;;;;4855357;29;20041;-70
2022/08/14 12:56:21;;;;;;;5.63;4.10;;;33.20;39.80;;;;;;4856380;29;20214;-72
2022/08/14 12:58:49;;;;;;;6.63;3.90;;;33.10;40.40;;;;;;4854772;29;20029;-72
2022/08/14 13:01:34;;;;;;;5.65;3.70;;;32.90;40.60;;;;;;4854014;29;20443;-71
2022/08/14 13:04:04;;;;;;;5.40;3.60;;;32.40;40.80;;;;;;4860123;29;20037;-71
2022/08/14 13:06:30;;;;;;;6.63;3.85;;;32.40;41.80;;;;;;4854318;29;20061;-72
2022/08/14 13:08:56;;;;;;;6.18;3.88;;;32.60;40.90;;;;;;4857083;29;20159;-70